createdAt,value
2018-03-02T00:00:08.354Z,1004
2018-03-02T00:01:08.359Z,1004.03
2018-03-02T00:02:08.353Z,1004.01
2018-03-02T00:03:08.360Z,1004.09
2018-03-02T00:04:08.531Z,1003.98
2018-03-02T00:05:08.373Z,1003.95
2018-03-02T00:06:08.371Z,1003.98
2018-03-02T00:07:08.387Z,1003.98
2018-03-02T00:08:08.382Z,1003.94
2018-03-02T00:09:08.406Z,1003.95
2018-03-02T00:10:08.393Z,1004.02
2018-03-02T00:11:08.391Z,1003.91
2018-03-02T00:12:08.383Z,1003.98
2018-03-02T00:13:08.392Z,1003.97
2018-03-02T00:14:08.379Z,1003.93
2018-03-02T00:15:08.406Z,1003.97
2018-03-02T00:16:08.387Z,1003.98
2018-03-02T00:17:08.414Z,1003.89
2018-03-02T00:18:08.391Z,1003.86
2018-03-02T00:19:08.411Z,1003.87
2018-03-02T00:20:08.395Z,1003.86
2018-03-02T00:21:08.625Z,1003.81
2018-03-02T00:22:08.747Z,1003.76
2018-03-02T00:23:08.399Z,1003.79
2018-03-02T00:24:08.410Z,1003.74
2018-03-02T00:25:08.401Z,1003.67
2018-03-02T00:26:08.401Z,1003.71
2018-03-02T00:27:08.423Z,1003.69
2018-03-02T00:28:08.414Z,1003.68
2018-03-02T00:29:08.418Z,1003.65
2018-03-02T00:30:08.424Z,1003.63
2018-03-02T00:31:08.576Z,1003.62
2018-03-02T00:32:08.583Z,1003.63
2018-03-02T00:33:08.419Z,1003.61
2018-03-02T00:34:08.415Z,1003.61
2018-03-02T00:35:08.462Z,1003.59
2018-03-02T00:36:08.424Z,1003.59
2018-03-02T00:37:08.449Z,1003.53
2018-03-02T00:38:08.423Z,1003.52
2018-03-02T00:39:08.436Z,1003.5
2018-03-02T00:40:08.452Z,1003.49
2018-03-02T00:41:08.442Z,1003.53
2018-03-02T00:42:08.438Z,1003.44
2018-03-02T00:43:08.446Z,1003.48
2018-03-02T00:44:08.447Z,1003.44
2018-03-02T00:45:08.444Z,1003.45
2018-03-02T00:46:08.682Z,1003.42
2018-03-02T00:47:08.460Z,1003.46
2018-03-02T00:48:08.532Z,1003.43
2018-03-02T00:49:09.470Z,1003.47
2018-03-02T00:50:08.456Z,1003.46
2018-03-02T00:51:08.488Z,1003.42
2018-03-02T00:52:08.473Z,1003.43
2018-03-02T00:53:08.473Z,1003.39
2018-03-02T00:54:08.482Z,1003.31
2018-03-02T00:55:08.487Z,1003.32
2018-03-02T00:56:08.492Z,1003.26
2018-03-02T00:57:08.484Z,1003.23
2018-03-02T00:58:08.488Z,1003.24
2018-03-02T00:59:08.489Z,1003.21
2018-03-02T01:00:08.496Z,1003.24
2018-03-02T01:01:08.487Z,1003.25
2018-03-02T01:02:08.932Z,1003.2
2018-03-02T01:03:08.517Z,1003.25
2018-03-02T01:04:08.508Z,1003.2
2018-03-02T01:05:08.497Z,1003.19
2018-03-02T01:06:08.503Z,1003.2
2018-03-02T01:07:08.520Z,1003.11
2018-03-02T01:08:08.506Z,1003.13
2018-03-02T01:09:08.519Z,1003.18
2018-03-02T01:10:08.510Z,1003.13
2018-03-02T01:11:08.517Z,1003.22
2018-03-02T01:12:08.543Z,1003.17
2018-03-02T01:13:08.524Z,1003.1
2018-03-02T01:14:08.534Z,1003.18
2018-03-02T01:15:08.536Z,1003.18
2018-03-02T01:16:08.537Z,1003.1
2018-03-02T01:17:08.544Z,1003.14
2018-03-02T01:18:08.569Z,1003.15
2018-03-02T01:19:08.534Z,1003.09
2018-03-02T01:20:08.537Z,1003.11
2018-03-02T01:21:08.542Z,1003.11
2018-03-02T01:22:08.556Z,1003.06
2018-03-02T01:23:08.582Z,1003.11
2018-03-02T01:24:08.560Z,1003.04
2018-03-02T01:25:08.565Z,1003.07
2018-03-02T01:26:08.571Z,1003.06
2018-03-02T01:27:08.620Z,1003.03
2018-03-02T01:28:08.571Z,1003.02
2018-03-02T01:29:08.577Z,1003.05
2018-03-02T01:30:08.579Z,1003.02
2018-03-02T01:31:08.588Z,1003
2018-03-02T01:32:08.612Z,1002.98
2018-03-02T01:33:08.587Z,1003.02
2018-03-02T01:34:08.612Z,1003.03
2018-03-02T01:35:08.603Z,1003.04
2018-03-02T01:36:08.871Z,1002.98
2018-03-02T01:37:08.604Z,1003.07
2018-03-02T01:38:08.611Z,1003.09
2018-03-02T01:39:08.608Z,1003.07
2018-03-02T01:40:08.609Z,1003.1
2018-03-02T01:41:08.637Z,1003.13
2018-03-02T01:42:08.615Z,1003.1
2018-03-02T01:43:08.620Z,1003.04
2018-03-02T01:44:08.620Z,1003
2018-03-02T01:45:08.629Z,1002.97
2018-03-02T01:46:08.647Z,1002.91
2018-03-02T01:47:08.641Z,1002.95
2018-03-02T01:48:08.635Z,1002.83
2018-03-02T01:50:20.842Z,1002.85
2018-03-02T01:51:08.671Z,1002.86
2018-03-02T01:52:08.638Z,1002.88
2018-03-02T01:53:08.643Z,1002.9
2018-03-02T01:54:08.652Z,1002.9
2018-03-02T01:55:08.660Z,1002.91
2018-03-02T01:56:08.777Z,1002.89
2018-03-02T01:57:08.659Z,1002.84
2018-03-02T01:58:08.655Z,1002.86
2018-03-02T01:59:08.672Z,1002.87
2018-03-02T02:00:08.666Z,1002.83
2018-03-02T02:01:08.693Z,1002.82
2018-03-02T02:02:08.695Z,1002.85
2018-03-02T02:03:08.677Z,1002.91
2018-03-02T02:04:08.679Z,1002.85
2018-03-02T02:05:08.681Z,1002.88
2018-03-02T02:06:08.687Z,1002.88
2018-03-02T02:07:08.706Z,1002.9
2018-03-02T02:08:08.700Z,1002.87
2018-03-02T02:09:08.982Z,1002.84
2018-03-02T02:10:08.703Z,1002.85
2018-03-02T02:11:08.712Z,1002.77
2018-03-02T02:12:08.713Z,1002.76
2018-03-02T02:13:08.721Z,1002.69
2018-03-02T02:14:08.735Z,1002.61
2018-03-02T02:15:08.735Z,1002.61
2018-03-02T02:16:08.742Z,1002.64
2018-03-02T02:18:14.899Z,1002.57
2018-03-02T02:19:08.748Z,1002.52
2018-03-02T02:20:08.780Z,1002.51
2018-03-02T02:21:08.741Z,1002.62
2018-03-02T02:22:08.753Z,1002.54
2018-03-02T02:23:08.757Z,1002.59
2018-03-02T02:24:08.752Z,1002.57
2018-03-02T02:25:08.773Z,1002.62
2018-03-02T02:26:08.757Z,1002.62
2018-03-02T02:27:08.762Z,1002.63
2018-03-02T02:28:08.761Z,1002.61
2018-03-02T02:29:08.767Z,1002.6
2018-03-02T02:30:08.774Z,1002.62
2018-03-02T02:31:08.774Z,1002.67
2018-03-02T02:32:08.779Z,1002.76
2018-03-02T02:33:08.776Z,1002.75
2018-03-02T02:34:09.051Z,1002.75
2018-03-02T02:35:08.788Z,1002.7
2018-03-02T02:36:08.782Z,1002.73
2018-03-02T02:37:08.780Z,1002.83
2018-03-02T02:38:08.795Z,1002.81
2018-03-02T02:39:08.826Z,1002.79
2018-03-02T02:40:08.781Z,1002.78
2018-03-02T02:41:08.795Z,1002.76
2018-03-02T02:42:08.803Z,1002.73
2018-03-02T02:43:08.798Z,1002.74
2018-03-02T02:44:08.798Z,1002.66
2018-03-02T02:45:08.811Z,1002.67
2018-03-02T02:46:08.836Z,1002.69
2018-03-02T02:47:08.809Z,1002.7
2018-03-02T02:48:08.817Z,1002.7
2018-03-02T02:49:08.847Z,1002.7
2018-03-02T02:50:08.827Z,1002.69
2018-03-02T02:51:08.839Z,1002.67
2018-03-02T02:52:08.822Z,1002.68
2018-03-02T02:53:08.825Z,1002.65
2018-03-02T02:54:08.843Z,1002.7
2018-03-02T02:55:08.840Z,1002.59
2018-03-02T02:56:08.869Z,1002.56
2018-03-02T02:57:08.844Z,1002.66
2018-03-02T02:58:08.853Z,1002.61
2018-03-02T02:59:08.880Z,1002.6
2018-03-02T03:00:08.858Z,1002.59
2018-03-02T03:01:08.880Z,1002.62
2018-03-02T03:03:08.977Z,1002.61
2018-03-02T03:04:08.897Z,1002.6
2018-03-02T03:05:08.881Z,1002.61
2018-03-02T03:06:08.878Z,1002.56
2018-03-02T03:07:08.886Z,1002.57
2018-03-02T03:08:08.882Z,1002.57
2018-03-02T03:09:08.895Z,1002.57
2018-03-02T03:10:08.896Z,1002.51
2018-03-02T03:11:08.896Z,1002.5
2018-03-02T03:12:08.922Z,1002.49
2018-03-02T03:13:08.892Z,1002.53
2018-03-02T03:14:08.890Z,1002.48
2018-03-02T03:15:08.906Z,1002.48
2018-03-02T03:16:08.904Z,1002.49
2018-03-02T03:17:09.183Z,1002.42
2018-03-02T03:18:08.908Z,1002.43
2018-03-02T03:20:29.985Z,1002.41
2018-03-02T03:21:08.916Z,1002.37
2018-03-02T03:22:08.950Z,1002.38
2018-03-02T03:23:08.925Z,1002.35
2018-03-02T03:24:08.932Z,1002.35
2018-03-02T03:25:08.926Z,1002.35
2018-03-02T03:26:08.942Z,1002.38
2018-03-02T03:27:08.954Z,1002.36
2018-03-02T03:28:08.934Z,1002.34
2018-03-02T03:29:08.964Z,1002.23
2018-03-02T03:30:08.955Z,1002.23
2018-03-02T03:31:08.949Z,1002.16
2018-03-02T03:32:08.957Z,1002.2
2018-03-02T03:33:09.234Z,1002.18
2018-03-02T03:34:08.965Z,1002.19
2018-03-02T03:35:08.963Z,1002.2
2018-03-02T03:36:08.968Z,1002.17
2018-03-02T03:37:08.973Z,1002.21
2018-03-02T03:38:09.259Z,1002.2
2018-03-02T03:39:08.965Z,1002.21
2018-03-02T03:40:08.963Z,1002.16
2018-03-02T03:41:08.957Z,1002.16
2018-03-02T03:42:09.175Z,1002.15
2018-03-02T03:43:08.986Z,1002.14
2018-03-02T03:44:09.011Z,1002.04
2018-03-02T03:45:09.256Z,1001.95
2018-03-02T03:46:08.982Z,1001.91
2018-03-02T03:47:08.983Z,1001.89
2018-03-02T03:48:08.992Z,1001.87
2018-03-02T03:49:08.993Z,1001.9
2018-03-02T03:50:09.037Z,1001.99
2018-03-02T03:51:09.007Z,1002.04
2018-03-02T03:52:09.177Z,1002.08
2018-03-02T03:53:09.004Z,1002.18
2018-03-02T03:54:08.997Z,1002.14
2018-03-02T03:55:09.034Z,1002.09
2018-03-02T03:56:09.015Z,1002.08
2018-03-02T03:57:09.018Z,1002.09
2018-03-02T03:58:09.008Z,1002.06
2018-03-02T03:59:09.124Z,1002.07
2018-03-02T04:00:09.094Z,1002.12
2018-03-02T04:01:09.010Z,1002.09
2018-03-02T04:02:09.016Z,1002.05
2018-03-02T04:03:09.022Z,1002.04
2018-03-02T04:04:09.037Z,1001.93
2018-03-02T04:06:15.296Z,1001.93
2018-03-02T04:07:09.032Z,1001.96
2018-03-02T04:08:09.067Z,1002
2018-03-02T04:09:09.042Z,1001.94
2018-03-02T04:10:09.050Z,1001.96
2018-03-02T04:11:09.043Z,1001.98
2018-03-02T04:12:09.054Z,1001.93
2018-03-02T04:13:09.082Z,1001.89
2018-03-02T04:14:09.071Z,1001.87
2018-03-02T04:16:09.144Z,1001.86
2018-03-02T04:17:09.083Z,1001.85
2018-03-02T04:18:09.085Z,1001.86
2018-03-02T04:19:09.083Z,1001.77
2018-03-02T04:20:09.135Z,1001.82
2018-03-02T04:21:09.104Z,1001.84
2018-03-02T04:22:09.436Z,1001.8
2018-03-02T04:23:09.104Z,1001.76
2018-03-02T04:24:09.099Z,1001.79
2018-03-02T04:25:09.119Z,1001.79
2018-03-02T04:26:09.106Z,1001.76
2018-03-02T04:27:09.147Z,1001.7
2018-03-02T04:28:09.125Z,1001.7
2018-03-02T04:29:09.121Z,1001.73
2018-03-02T04:30:09.127Z,1001.7
2018-03-02T04:31:09.131Z,1001.63
2018-03-02T04:32:09.154Z,1001.65
2018-03-02T04:33:09.442Z,1001.63
2018-03-02T04:34:09.147Z,1001.6
2018-03-02T04:35:09.139Z,1001.59
2018-03-02T04:36:09.144Z,1001.53
2018-03-02T04:37:09.149Z,1001.42
2018-03-02T04:38:09.169Z,1001.39
2018-03-02T04:39:09.147Z,1001.36
2018-03-02T04:40:09.155Z,1001.39
2018-03-02T04:41:09.169Z,1001.33
2018-03-02T04:42:09.160Z,1001.36
2018-03-02T04:43:09.194Z,1001.37
2018-03-02T04:45:15.353Z,1001.19
2018-03-02T04:46:09.170Z,1001.24
2018-03-02T04:47:09.176Z,1001.16
2018-03-02T04:48:09.190Z,1001.11
2018-03-02T04:49:09.172Z,1001.06
2018-03-02T04:50:09.182Z,1001.1
2018-03-02T04:51:09.176Z,1001.06
2018-03-02T04:52:09.201Z,1000.99
2018-03-02T04:53:09.175Z,1000.93
2018-03-02T04:54:09.176Z,1000.99
2018-03-02T04:55:09.184Z,1000.94
2018-03-02T04:56:09.189Z,1000.95
2018-03-02T04:57:09.204Z,1000.89
2018-03-02T04:58:09.206Z,1000.83
2018-03-02T04:59:09.197Z,1000.8
2018-03-02T05:00:09.191Z,1000.79
2018-03-02T05:01:09.194Z,1000.78
2018-03-02T05:03:15.589Z,1000.77
2018-03-02T05:04:09.214Z,1000.74
2018-03-02T05:05:09.213Z,1000.77
2018-03-02T05:06:09.217Z,1000.82
2018-03-02T05:07:09.223Z,1000.83
2018-03-02T05:08:09.221Z,1000.8
2018-03-02T05:09:09.221Z,1000.87
2018-03-02T05:10:09.229Z,1000.8
2018-03-02T05:11:09.233Z,1000.81
2018-03-02T05:12:09.396Z,1000.82
2018-03-02T05:13:09.229Z,1000.73
2018-03-02T05:14:09.257Z,1000.81
2018-03-02T05:15:09.244Z,1000.79
2018-03-02T05:16:09.243Z,1000.81
2018-03-02T05:17:09.237Z,1000.81
2018-03-02T05:18:09.259Z,1000.74
2018-03-02T05:19:09.276Z,1000.85
2018-03-02T05:20:09.257Z,1000.86
2018-03-02T05:21:09.324Z,1000.85
2018-03-02T05:22:09.268Z,1000.88
2018-03-02T05:23:09.261Z,1000.83
2018-03-02T05:24:09.280Z,1000.81
2018-03-02T05:25:09.278Z,1000.77
2018-03-02T05:26:09.528Z,1000.75
2018-03-02T05:27:09.262Z,1000.8
2018-03-02T05:28:09.262Z,1000.78
2018-03-02T05:29:09.268Z,1000.81
2018-03-02T05:30:09.292Z,1000.75
2018-03-02T05:31:09.299Z,1000.74
2018-03-02T05:32:09.280Z,1000.77
2018-03-02T05:33:09.280Z,1000.76
2018-03-02T05:34:09.288Z,1000.76
2018-03-02T05:35:09.307Z,1000.78
2018-03-02T05:36:09.315Z,1000.72
2018-03-02T05:37:09.321Z,1000.77
2018-03-02T05:38:09.296Z,1000.8
2018-03-02T05:39:09.317Z,1000.75
2018-03-02T05:40:09.299Z,1000.75
2018-03-02T05:41:09.494Z,1000.77
2018-03-02T05:42:09.341Z,1000.79
2018-03-02T05:43:09.318Z,1000.82
2018-03-02T05:44:09.325Z,1000.8
2018-03-02T05:45:09.338Z,1000.85
2018-03-02T05:46:09.329Z,1000.8
2018-03-02T05:47:09.373Z,1000.78
2018-03-02T05:48:09.368Z,1000.82
2018-03-02T05:49:09.339Z,1000.77
2018-03-02T05:50:09.330Z,1000.73
2018-03-02T05:51:09.336Z,1000.74
2018-03-02T05:52:09.343Z,1000.71
2018-03-02T05:53:09.516Z,1000.71
2018-03-02T05:54:09.350Z,1000.68
2018-03-02T05:55:09.348Z,1000.7
2018-03-02T05:56:09.348Z,1000.77
2018-03-02T05:57:09.354Z,1000.68
2018-03-02T05:59:09.415Z,1000.72
2018-03-02T06:00:09.414Z,1000.76
2018-03-02T06:01:09.372Z,1000.75
2018-03-02T06:02:09.523Z,1000.78
2018-03-02T06:03:09.380Z,1000.79
2018-03-02T06:04:09.380Z,1000.72
2018-03-02T06:05:09.399Z,1000.75
2018-03-02T06:06:09.372Z,1000.71
2018-03-02T06:07:09.427Z,1000.69
2018-03-02T06:08:09.376Z,1000.64
2018-03-02T06:09:09.389Z,1000.6
2018-03-02T06:10:09.656Z,1000.63
2018-03-02T06:11:09.396Z,1000.64
2018-03-02T06:12:09.407Z,1000.7
2018-03-02T06:13:09.400Z,1000.66
2018-03-02T06:14:09.408Z,1000.63
2018-03-02T06:15:09.427Z,1000.65
2018-03-02T06:16:09.433Z,1000.67
2018-03-02T06:17:09.425Z,1000.63
2018-03-02T06:18:09.433Z,1000.68
2018-03-02T06:19:09.452Z,1000.58
2018-03-02T06:20:09.429Z,1000.65
2018-03-02T06:21:09.466Z,1000.59
2018-03-02T06:22:09.439Z,1000.49
2018-03-02T06:23:09.438Z,1000.55
2018-03-02T06:24:09.441Z,1000.53
2018-03-02T06:25:09.441Z,1000.53
2018-03-02T06:26:09.619Z,1000.46
2018-03-02T06:27:09.442Z,1000.42
2018-03-02T06:28:09.455Z,1000.44
2018-03-02T06:29:09.448Z,1000.43
2018-03-02T06:30:09.462Z,1000.43
2018-03-02T06:31:09.498Z,1000.42
2018-03-02T06:32:09.456Z,1000.49
2018-03-02T06:33:09.465Z,1000.53
2018-03-02T06:34:09.463Z,1000.46
2018-03-02T06:35:09.463Z,1000.46
2018-03-02T06:36:09.519Z,1000.47
2018-03-02T06:38:09.565Z,1000.5
2018-03-02T06:39:09.486Z,1000.44
2018-03-02T06:40:09.524Z,1000.45
2018-03-02T06:41:09.513Z,1000.44
2018-03-02T06:42:09.498Z,1000.47
2018-03-02T06:43:09.516Z,1000.45
2018-03-02T06:44:09.514Z,1000.46
2018-03-02T06:45:09.512Z,1000.44
2018-03-02T06:46:09.506Z,1000.51
2018-03-02T06:47:09.512Z,1000.47
2018-03-02T06:48:09.518Z,1000.5
2018-03-02T06:49:09.528Z,1000.52
2018-03-02T06:50:09.515Z,1000.5
2018-03-02T06:51:09.541Z,1000.44
2018-03-02T06:52:09.552Z,1000.45
2018-03-02T06:53:09.605Z,1000.44
2018-03-02T06:54:09.539Z,1000.38
2018-03-02T06:55:09.536Z,1000.39
2018-03-02T06:56:09.543Z,1000.43
2018-03-02T06:57:09.598Z,1000.48
2018-03-02T06:58:09.554Z,1000.46
2018-03-02T06:59:09.552Z,1000.43
2018-03-02T07:00:09.555Z,1000.45
2018-03-02T07:01:09.574Z,1000.49
2018-03-02T07:02:09.585Z,1000.44
2018-03-02T07:03:09.559Z,1000.44
2018-03-02T07:04:09.566Z,1000.5
2018-03-02T07:05:09.565Z,1000.5
2018-03-02T07:06:09.573Z,1000.47
2018-03-02T07:07:09.599Z,1000.49
2018-03-02T07:08:09.605Z,1000.45
2018-03-02T07:09:09.583Z,1000.52
2018-03-02T07:10:09.584Z,1000.52
2018-03-02T07:11:09.593Z,1000.55
2018-03-02T07:12:09.613Z,1000.52
2018-03-02T07:13:09.594Z,1000.55
2018-03-02T07:14:09.602Z,1000.49
2018-03-02T07:15:09.591Z,1000.47
2018-03-02T07:16:09.593Z,1000.48
2018-03-02T07:17:09.617Z,1000.44
2018-03-02T07:18:09.607Z,1000.46
2018-03-02T07:19:09.611Z,1000.47
2018-03-02T07:20:09.628Z,1000.42
2018-03-02T07:21:09.619Z,1000.43
2018-03-02T07:22:09.656Z,1000.41
2018-03-02T07:23:09.629Z,1000.38
2018-03-02T07:24:09.636Z,1000.44
2018-03-02T07:25:09.622Z,1000.38
2018-03-02T07:26:09.749Z,1000.34
2018-03-02T07:27:09.638Z,1000.43
2018-03-02T07:28:09.627Z,1000.44
2018-03-02T07:29:09.660Z,1000.45
2018-03-02T07:30:09.682Z,1000.4
2018-03-02T07:31:09.641Z,1000.44
2018-03-02T07:32:09.652Z,1000.34
2018-03-02T07:33:09.653Z,1000.34
2018-03-02T07:34:09.831Z,1000.36
2018-03-02T07:35:09.670Z,1000.3
2018-03-02T07:36:09.665Z,1000.34
2018-03-02T07:37:09.929Z,1000.35
2018-03-02T07:38:09.658Z,1000.36
2018-03-02T07:39:09.691Z,1000.39
2018-03-02T07:40:09.676Z,1000.45
2018-03-02T07:41:09.683Z,1000.43
2018-03-02T07:42:09.678Z,1000.4
2018-03-02T07:43:09.686Z,1000.4
2018-03-02T07:44:09.716Z,1000.41
2018-03-02T07:45:09.693Z,1000.39
2018-03-02T07:46:09.697Z,1000.37
2018-03-02T07:47:09.710Z,1000.34
2018-03-02T07:48:09.704Z,1000.3
2018-03-02T07:49:09.799Z,1000.32
2018-03-02T07:50:09.759Z,1000.35
2018-03-02T07:51:09.708Z,1000.3
2018-03-02T07:52:09.711Z,1000.25
2018-03-02T07:53:09.714Z,1000.25
2018-03-02T07:54:09.722Z,1000.21
2018-03-02T07:55:09.748Z,1000.2
2018-03-02T07:56:09.764Z,1000.2
2018-03-02T07:57:09.732Z,1000.19
2018-03-02T07:58:09.725Z,1000.17
2018-03-02T07:59:09.730Z,1000.14
2018-03-02T08:00:09.740Z,1000.21
2018-03-02T08:01:09.787Z,1000.19
2018-03-02T08:02:09.754Z,1000.1
2018-03-02T08:03:09.757Z,1000.13
2018-03-02T08:04:09.761Z,1000.13
2018-03-02T08:05:09.756Z,1000.14
2018-03-02T08:06:09.788Z,1000.08
2018-03-02T08:07:09.769Z,1000.1
2018-03-02T08:08:09.774Z,1000.08
2018-03-02T08:09:09.782Z,1000
2018-03-02T08:10:09.814Z,1000.03
2018-03-02T08:11:09.813Z,1000
2018-03-02T08:12:09.790Z,1000.07
2018-03-02T08:13:09.800Z,1000
2018-03-02T08:14:09.803Z,999.99
2018-03-02T08:15:09.826Z,999.99
2018-03-02T08:16:09.916Z,1000.03
2018-03-02T08:17:09.818Z,999.99
2018-03-02T08:18:09.828Z,1000
2018-03-02T08:19:09.835Z,999.99
2018-03-02T08:20:09.829Z,999.98
2018-03-02T08:21:09.847Z,999.96
2018-03-02T08:22:09.837Z,999.98
2018-03-02T08:23:09.843Z,999.99
2018-03-02T08:24:09.845Z,999.92
2018-03-02T08:25:09.845Z,999.96
2018-03-02T08:26:09.966Z,999.97
2018-03-02T08:27:09.894Z,999.92
2018-03-02T08:28:09.847Z,999.88
2018-03-02T08:29:09.840Z,999.92
2018-03-02T08:30:09.847Z,999.92
2018-03-02T08:31:09.884Z,999.9
2018-03-02T08:32:09.852Z,999.9
2018-03-02T08:33:09.856Z,999.85
2018-03-02T08:34:09.856Z,999.8
2018-03-02T08:35:09.871Z,999.8
2018-03-02T08:36:09.892Z,999.8
2018-03-02T08:37:09.886Z,999.71
2018-03-02T08:38:09.880Z,999.79
2018-03-02T08:39:09.881Z,999.65
2018-03-02T08:40:09.892Z,999.73
2018-03-02T08:41:09.921Z,999.77
2018-03-02T08:42:09.904Z,999.74
2018-03-02T08:43:09.914Z,999.8
2018-03-02T08:44:09.906Z,999.78
2018-03-02T08:45:09.908Z,999.78
2018-03-02T08:46:10.175Z,999.76
2018-03-02T08:47:09.913Z,999.75
2018-03-02T08:48:09.931Z,999.78
2018-03-02T08:49:09.910Z,999.76
2018-03-02T08:50:09.916Z,999.82
2018-03-02T08:51:09.943Z,999.75
2018-03-02T08:52:09.927Z,999.72
2018-03-02T08:53:09.935Z,999.79
2018-03-02T08:54:09.943Z,999.77
2018-03-02T08:55:09.947Z,999.72
2018-03-02T08:56:09.978Z,999.74
2018-03-02T08:57:09.966Z,999.71
2018-03-02T08:58:09.973Z,999.66
2018-03-02T08:59:09.982Z,999.66
2018-03-02T09:00:10.172Z,999.66
2018-03-02T09:01:10.243Z,999.67
2018-03-02T09:02:09.979Z,999.7
2018-03-02T09:03:09.985Z,999.6
2018-03-02T09:04:09.985Z,999.64
2018-03-02T09:05:09.999Z,999.6
2018-03-02T09:06:10.031Z,999.61
2018-03-02T09:07:09.991Z,999.67
2018-03-02T09:08:09.998Z,999.64
2018-03-02T09:09:10.008Z,999.7
2018-03-02T09:10:10.012Z,999.68
2018-03-02T09:11:10.002Z,999.59
2018-03-02T09:12:10.027Z,999.58
2018-03-02T09:13:10.010Z,999.58
2018-03-02T09:14:10.017Z,999.6
2018-03-02T09:15:10.034Z,999.55
2018-03-02T09:16:10.063Z,999.54
2018-03-02T09:17:10.028Z,999.55
2018-03-02T09:18:10.034Z,999.53
2018-03-02T09:19:10.047Z,999.54
2018-03-02T09:20:10.047Z,999.49
2018-03-02T09:21:10.049Z,999.49
2018-03-02T09:22:10.068Z,999.44
2018-03-02T09:23:10.054Z,999.39
2018-03-02T09:24:10.059Z,999.39
2018-03-02T09:25:10.058Z,999.44
2018-03-02T09:26:10.061Z,999.37
2018-03-02T09:27:10.077Z,999.44
2018-03-02T09:28:10.053Z,999.42
2018-03-02T09:29:10.091Z,999.4
2018-03-02T09:30:10.149Z,999.4
2018-03-02T09:31:10.062Z,999.5
2018-03-02T09:32:10.091Z,999.53
2018-03-02T09:33:10.116Z,999.5
2018-03-02T09:34:10.070Z,999.52
2018-03-02T09:35:10.075Z,999.48
2018-03-02T09:36:10.070Z,999.51
2018-03-02T09:37:10.096Z,999.53
2018-03-02T09:38:10.072Z,999.5
2018-03-02T09:39:10.089Z,999.51
2018-03-02T09:40:10.083Z,999.52
2018-03-02T09:41:10.091Z,999.58
2018-03-02T09:42:10.110Z,999.62
2018-03-02T09:43:10.092Z,999.6
2018-03-02T09:44:10.101Z,999.63
2018-03-02T09:45:10.100Z,999.65
2018-03-02T09:46:10.100Z,999.65
2018-03-02T09:47:10.126Z,999.74
2018-03-02T09:48:10.137Z,999.77
2018-03-02T09:49:10.110Z,999.73
2018-03-02T09:50:10.115Z,999.7
2018-03-02T09:51:10.117Z,999.66
2018-03-02T09:52:10.193Z,999.7
2018-03-02T09:53:10.148Z,999.66
2018-03-02T09:54:10.136Z,999.64
2018-03-02T09:55:10.126Z,999.61
2018-03-02T09:56:10.132Z,999.59
2018-03-02T09:57:10.134Z,999.72
2018-03-02T09:58:10.322Z,999.68
2018-03-02T09:59:10.160Z,999.75
2018-03-02T10:00:10.472Z,999.78
2018-03-02T10:01:10.145Z,999.7
2018-03-02T10:02:10.151Z,999.72
2018-03-02T10:03:10.328Z,999.7
2018-03-02T10:04:10.154Z,999.68
2018-03-02T10:05:10.164Z,999.64
2018-03-02T10:06:10.178Z,999.68
2018-03-02T10:07:10.169Z,999.69
2018-03-02T10:08:10.164Z,999.69
2018-03-02T10:09:10.171Z,999.67
2018-03-02T10:10:10.173Z,999.69
2018-03-02T10:11:10.174Z,999.64
2018-03-02T10:12:10.179Z,999.66
2018-03-02T10:13:10.208Z,999.7
2018-03-02T10:14:10.206Z,999.66
2018-03-02T10:15:10.199Z,999.69
2018-03-02T10:16:10.198Z,999.69
2018-03-02T10:17:10.200Z,999.66
2018-03-02T10:18:10.292Z,999.68
2018-03-02T10:19:10.210Z,999.63
2018-03-02T10:20:10.208Z,999.7
2018-03-02T10:21:10.222Z,999.67
2018-03-02T10:22:10.220Z,999.69
2018-03-02T10:23:10.227Z,999.61
2018-03-02T10:24:10.259Z,999.66
2018-03-02T10:25:10.231Z,999.68
2018-03-02T10:26:10.228Z,999.69
2018-03-02T10:27:10.245Z,999.7
2018-03-02T10:28:10.305Z,999.64
2018-03-02T10:29:10.256Z,999.63
2018-03-02T10:30:10.255Z,999.62
2018-03-02T10:31:10.258Z,999.63
2018-03-02T10:32:10.262Z,999.63
2018-03-02T10:33:13.376Z,999.58
2018-03-02T10:34:10.264Z,999.63
2018-03-02T10:35:10.270Z,999.62
2018-03-02T10:36:10.276Z,999.63
2018-03-02T10:37:10.287Z,999.67
2018-03-02T10:38:10.557Z,999.63
2018-03-02T10:39:10.313Z,999.64
2018-03-02T10:40:10.288Z,999.61
2018-03-02T10:41:10.288Z,999.53
2018-03-02T10:42:10.338Z,999.6
2018-03-02T10:43:10.327Z,999.56
2018-03-02T10:44:10.305Z,999.57
2018-03-02T10:45:10.316Z,999.55
2018-03-02T10:46:10.315Z,999.58
2018-03-02T10:47:10.320Z,999.52
2018-03-02T10:48:10.344Z,999.55
2018-03-02T10:49:10.322Z,999.55
2018-03-02T10:50:10.327Z,999.55
2018-03-02T10:51:10.333Z,999.52
2018-03-02T10:52:10.333Z,999.54
2018-03-02T10:53:10.423Z,999.63
2018-03-02T10:54:10.428Z,999.6
2018-03-02T10:55:10.356Z,999.59
2018-03-02T10:56:10.387Z,999.61
2018-03-02T10:57:10.346Z,999.56
2018-03-02T10:58:10.370Z,999.52
2018-03-02T10:59:10.345Z,999.54
2018-03-02T11:00:10.354Z,999.57
2018-03-02T11:01:10.360Z,999.53
2018-03-02T11:02:10.368Z,999.51
2018-03-02T11:03:10.390Z,999.57
2018-03-02T11:04:10.369Z,999.55
2018-03-02T11:05:10.374Z,999.61
2018-03-02T11:06:10.372Z,999.54
2018-03-02T11:07:10.388Z,999.6
2018-03-02T11:08:10.602Z,999.6
2018-03-02T11:09:10.382Z,999.56
2018-03-02T11:10:10.385Z,999.58
2018-03-02T11:11:10.382Z,999.56
2018-03-02T11:12:10.385Z,999.5
2018-03-02T11:13:10.426Z,999.5
2018-03-02T11:14:10.389Z,999.52
2018-03-02T11:15:10.402Z,999.49
2018-03-02T11:16:10.403Z,999.56
2018-03-02T11:17:10.415Z,999.47
2018-03-02T11:18:10.424Z,999.46
2018-03-02T11:19:10.411Z,999.51
2018-03-02T11:20:10.416Z,999.5
2018-03-02T11:21:10.422Z,999.45
2018-03-02T11:22:10.447Z,999.4
2018-03-02T11:23:10.552Z,999.4
2018-03-02T11:24:10.436Z,999.44
2018-03-02T11:25:10.443Z,999.39
2018-03-02T11:26:10.433Z,999.4
2018-03-02T11:27:10.436Z,999.39
2018-03-02T11:28:10.467Z,999.43
2018-03-02T11:29:10.434Z,999.43
2018-03-02T11:30:10.433Z,999.45
2018-03-02T11:31:10.446Z,999.46
2018-03-02T11:32:10.461Z,999.45
2018-03-02T11:33:10.672Z,999.43
2018-03-02T11:34:10.448Z,999.44
2018-03-02T11:35:10.447Z,999.48
2018-03-02T11:36:10.454Z,999.5
2018-03-02T11:37:10.456Z,999.45
2018-03-02T11:38:10.470Z,999.49
2018-03-02T11:39:10.457Z,999.46
2018-03-02T11:40:10.463Z,999.45
2018-03-02T11:41:10.472Z,999.5
2018-03-02T11:42:10.481Z,999.49
2018-03-02T11:43:10.494Z,999.59
2018-03-02T11:44:10.497Z,999.55
2018-03-02T11:45:10.487Z,999.61
2018-03-02T11:46:10.482Z,999.59
2018-03-02T11:47:10.489Z,999.7
2018-03-02T11:48:10.519Z,999.62
2018-03-02T11:49:10.508Z,999.66
2018-03-02T11:50:10.502Z,999.69
2018-03-02T11:51:10.496Z,999.71
2018-03-02T11:52:10.497Z,999.71
2018-03-02T11:53:10.509Z,999.76
2018-03-02T11:54:10.544Z,999.8
2018-03-02T11:55:10.520Z,999.81
2018-03-02T11:56:10.520Z,999.78
2018-03-02T11:57:10.515Z,999.81
2018-03-02T11:58:10.509Z,999.81
2018-03-02T11:59:10.544Z,999.86
2018-03-02T12:00:10.548Z,999.82
2018-03-02T12:01:10.524Z,999.88
2018-03-02T12:02:10.526Z,999.88
2018-03-02T12:03:10.527Z,999.91
2018-03-02T12:04:10.529Z,999.94
2018-03-02T12:05:10.568Z,999.97
2018-03-02T12:06:10.536Z,999.96
2018-03-02T12:07:10.538Z,999.96
2018-03-02T12:08:10.543Z,999.94
2018-03-02T12:09:10.549Z,999.94
2018-03-02T12:10:10.575Z,999.98
2018-03-02T12:11:10.560Z,999.96
2018-03-02T12:12:10.545Z,999.96
2018-03-02T12:13:10.556Z,999.98
2018-03-02T12:14:10.561Z,999.95
2018-03-02T12:15:10.596Z,999.92
2018-03-02T12:16:10.574Z,999.93
2018-03-02T12:17:10.594Z,999.96
2018-03-02T12:18:10.573Z,999.95
2018-03-02T12:19:10.579Z,999.95
2018-03-02T12:20:10.578Z,1000.01
2018-03-02T12:21:10.589Z,999.96
2018-03-02T12:22:10.610Z,999.97
2018-03-02T12:23:10.583Z,1000
2018-03-02T12:24:10.590Z,1000.02
2018-03-02T12:25:10.754Z,999.96
2018-03-02T12:26:10.586Z,999.98